Ana Sayfa
METAR-TAF:

METAR-TAF

Havaalanları :

Bamako, Mali

Enlem: 12-32N, Boylam: 007-57W, yükseklik: 380 m

Güncel hava durumu gözlemi

Rapor saat 01:30 UTC de 43 dakika önce yapıldı.
Rüzgar kuzeydan 4 kt
Sıcaklık 19°C
Nem 43%
Basınç 1017 hPa
Görüş mesafesi 10 km veya daha fazla
1500 m altında bulut yok ve kümülonimbus yok

METAR: GABS 110130Z 01004KT CAVOK 19/06 Q1017 NOSIG

Saat: 02:13 (02:13 UTC)

Tahmin

Rapor saat 23:00 UTC de 3 saat ve 13 dakika önce yapıldı.
Ayın 11'si saat 00 UTC'den ayın 12'si saat 06 UTC'ye kadar geçerli Tahmin
Rüzgar doğu/kuzeydoğudan 6 kt
Görüş mesafesi 10 km veya daha fazla
1500 m altında bulut yok ve kümülonimbus yok

TAF: GABS 102300Z 1100/1206 07006KT CAVOK

4.000'den fazla havaalanı için hava durumu gözlemleri ve tahminleri (METAR ve TAF raporları).

Kullanılabilir istasyonlar harita üzerinde sarı ve kırmızı noktalarla gösterilir.

İstasyonun adını görmek için fareyi noktanın üzerinde gezdirin.

Sonrasında hava gözlem ve tahminlerini görmek için tıklayın.

Haritayı değiştirmek için: yaklaştırmak için siyah artı işaretli yeşil düğmeye ve uzaklaştırmak için de eksi işaretli düğmeye hızla tıklayın; bitişik haritalar için yeşil okları kullanın.


METAR-TAF: